createdAt,value
2022-11-18T00:02:48.500Z,8.80
2022-11-18T00:07:52.100Z,7.85
2022-11-18T00:13:15.761Z,7.82
2022-11-18T00:18:19.172Z,7.90
2022-11-18T00:23:22.804Z,8.18
2022-11-18T00:28:27.589Z,7.80
2022-11-18T00:33:30.988Z,8.57
2022-11-18T00:38:34.553Z,7.50
2022-11-18T00:43:39.710Z,7.90
2022-11-18T00:48:43.380Z,8.50
2022-11-18T00:53:47.166Z,7.25
2022-11-18T00:58:52.089Z,7.90
2022-11-18T01:03:55.829Z,8.20
2022-11-18T01:08:59.663Z,7.70
2022-11-18T01:14:04.461Z,7.80
2022-11-18T01:19:07.912Z,7.65
2022-11-18T01:24:11.269Z,7.28
2022-11-18T01:29:16.332Z,7.97
2022-11-18T01:34:20.105Z,7.60
2022-11-18T01:39:23.509Z,8.20
2022-11-18T01:44:59.538Z,7.97
2022-11-18T01:50:04.400Z,7.38
2022-11-18T01:55:12.501Z,8.13
2022-11-18T02:00:18.236Z,8.40
2022-11-18T02:05:22.794Z,7.97
2022-11-18T02:10:26.270Z,7.05
2022-11-18T02:15:44.596Z,8.93
2022-11-18T02:20:51.325Z,8.98
2022-11-18T02:26:19.803Z,7.78
2022-11-18T02:31:30.207Z,9.35
2022-11-18T02:36:41.408Z,8.88
2022-11-18T02:41:47.227Z,8.43
2022-11-18T02:46:57.377Z,8.95
2022-11-18T02:52:02.753Z,8.88
2022-11-18T02:57:07.037Z,8.70
2022-11-18T03:02:17.516Z,9.45
2022-11-18T03:07:26.773Z,8.85
2022-11-18T03:12:39.584Z,9.18
2022-11-18T03:17:54.446Z,8.88
2022-11-18T03:23:06.669Z,8.60
2022-11-18T03:28:15.902Z,10.45
2022-11-18T03:33:27.356Z,9.68
2022-11-18T03:38:35.203Z,8.13
2022-11-18T03:43:42.577Z,9.65
2022-11-18T03:48:52.781Z,10.13
2022-11-18T03:54:00.218Z,10.40
2022-11-18T03:59:10.629Z,9.05
2022-11-18T04:04:15.928Z,8.95
2022-11-18T04:09:24.895Z,8.95
2022-11-18T04:14:28.579Z,9.55
2022-11-18T04:19:33.307Z,8.90
2022-11-18T04:24:36.757Z,9.73
2022-11-18T04:29:40.175Z,11.02
2022-11-18T04:34:44.877Z,9.88
2022-11-18T04:39:48.247Z,9.70
2022-11-18T04:44:51.899Z,10.63
2022-11-18T04:49:56.699Z,12.40
2022-11-18T04:55:00.088Z,12.45
2022-11-18T05:00:04.037Z,12.88
2022-11-18T05:05:09.526Z,11.93
2022-11-18T05:10:12.886Z,12.52
2022-11-18T05:15:16.853Z,12.57
2022-11-18T05:20:21.704Z,12.48
2022-11-18T05:25:25.070Z,13.73
2022-11-18T05:30:28.431Z,14.02
2022-11-18T05:35:33.335Z,12.18
2022-11-18T05:40:36.755Z,14.07
2022-11-18T05:45:40.684Z,13.15
2022-11-18T05:50:48.270Z,12.80
2022-11-18T05:55:58.055Z,12.98
2022-11-18T06:01:06.869Z,12.35
2022-11-18T06:06:13.939Z,12.07
2022-11-18T06:11:20.044Z,13.32
2022-11-18T06:16:26.352Z,13.45
2022-11-18T06:21:31.690Z,12.05
2022-11-18T06:26:35.136Z,14.10
2022-11-18T06:31:38.915Z,12.88
2022-11-18T06:36:43.764Z,13.35
2022-11-18T06:41:47.134Z,12.70
2022-11-18T06:46:59.559Z,12.07
2022-11-18T06:52:04.332Z,12.63
2022-11-18T06:57:07.757Z,13.68
2022-11-18T07:02:11.369Z,14.55
2022-11-18T07:07:16.439Z,13.65
2022-11-18T07:12:19.952Z,14.18
2022-11-18T07:17:23.414Z,14.48
2022-11-18T07:22:28.556Z,15.57
2022-11-18T07:27:31.905Z,16.25
2022-11-18T07:32:35.321Z,15.27
2022-11-18T07:37:40.042Z,17.90
2022-11-18T07:42:43.632Z,16.17
2022-11-18T07:47:47.002Z,15.02
2022-11-18T07:52:51.806Z,14.82
2022-11-18T07:57:57.480Z,15.15
2022-11-18T08:03:00.910Z,15.75
2022-11-18T08:08:06.088Z,14.15
2022-11-18T08:13:09.745Z,14.20
2022-11-18T08:18:13.997Z,15.25
2022-11-18T08:23:19.035Z,15.23
2022-11-18T08:28:22.554Z,16.13
2022-11-18T08:33:25.985Z,15.32
2022-11-18T08:38:30.663Z,16.92
2022-11-18T08:43:34.118Z,14.40
2022-11-18T08:48:37.544Z,14.35
2022-11-18T08:53:42.386Z,15.88
2022-11-18T08:58:46.309Z,15.68
2022-11-18T09:03:50.156Z,16.80
2022-11-18T09:08:55.406Z,16.65
2022-11-18T09:15:05.839Z,17.15
2022-11-18T09:19:46.075Z,17.92
2022-11-18T09:24:49.124Z,17.40
2022-11-18T09:29:52.542Z,17.25
2022-11-18T09:34:56.165Z,17.15
2022-11-18T09:40:00.907Z,17.73
2022-11-18T09:45:18.140Z,17.80
2022-11-18T09:50:48.377Z,18.33
2022-11-18T09:55:50.604Z,16.02
2022-11-18T10:00:54.399Z,16.27
2022-11-18T10:06:03.700Z,14.98
2022-11-18T10:11:14.875Z,14.73
2022-11-18T10:16:36.435Z,16.27
2022-11-18T10:21:50.644Z,16.25
2022-11-18T10:26:59.402Z,16.55
2022-11-18T10:32:05.644Z,16.58
2022-11-18T10:37:34.481Z,16.00
2022-11-18T10:42:48.292Z,15.77
2022-11-18T10:48:00.114Z,15.85
2022-11-18T10:53:04.388Z,17.17
2022-11-18T10:58:16.207Z,15.65
2022-11-18T11:03:36.769Z,15.98
2022-11-18T11:08:49.605Z,16.13
2022-11-18T11:13:58.614Z,16.83
2022-11-18T11:19:04.983Z,16.95
2022-11-18T11:24:12.540Z,16.10
2022-11-18T11:29:36.921Z,17.25
2022-11-18T11:34:48.058Z,15.80
2022-11-18T11:40:03.732Z,17.00
2022-11-18T11:45:19.824Z,15.15
2022-11-18T11:50:29.405Z,17.38
2022-11-18T11:55:38.460Z,16.10
2022-11-18T12:00:50.574Z,15.95
2022-11-18T12:05:54.037Z,17.25
2022-11-18T12:11:01.560Z,16.75
2022-11-18T12:16:21.581Z,18.85
2022-11-18T12:21:53.811Z,17.45
2022-11-18T12:26:57.682Z,17.67
2022-11-18T12:32:03.133Z,17.30
2022-11-18T12:37:54.281Z,18.98
2022-11-18T12:43:15.065Z,19.90
2022-11-18T12:48:43.955Z,17.92
2022-11-18T12:53:49.576Z,19.00
2022-11-18T12:58:55.203Z,17.02
2022-11-18T13:04:10.137Z,18.40
2022-11-18T13:09:17.980Z,17.60
2022-11-18T13:14:43.584Z,16.40
2022-11-18T13:19:57.894Z,14.73
2022-11-18T13:25:01.528Z,12.85
2022-11-18T13:30:11.459Z,12.32
2022-11-18T13:35:19.386Z,10.07
2022-11-18T13:40:25.841Z,11.90
2022-11-18T13:45:30.872Z,9.43
2022-11-18T13:50:38.360Z,8.65
2022-11-18T13:55:47.359Z,10.10
2022-11-18T14:00:57.429Z,9.20
2022-11-18T14:06:03.153Z,8.55
2022-11-18T14:11:08.029Z,8.43
2022-11-18T14:16:33.612Z,6.45
2022-11-18T14:21:39.205Z,7.55
2022-11-18T14:26:42.660Z,6.53
2022-11-18T14:31:46.031Z,5.85
2022-11-18T14:36:51.603Z,5.90
2022-11-18T14:41:56.149Z,5.20
2022-11-18T14:47:01.344Z,6.15
2022-11-18T14:52:06.347Z,4.72
2022-11-18T14:57:15.768Z,5.40
2022-11-18T15:02:19.272Z,4.72
2022-11-18T15:07:24.431Z,4.63
2022-11-18T15:12:28.216Z,5.18
2022-11-18T15:17:31.657Z,5.95
2022-11-18T15:22:36.401Z,6.78
2022-11-18T15:27:40.283Z,8.70
2022-11-18T15:32:44.465Z,8.57
2022-11-18T15:37:49.657Z,10.57
2022-11-18T15:42:53.043Z,18.13
2022-11-18T15:47:56.413Z,14.20
2022-11-18T15:53:01.153Z,12.18
2022-11-18T15:58:04.548Z,15.38
2022-11-18T16:03:07.932Z,17.48
2022-11-18T16:08:12.670Z,10.18
2022-11-18T16:13:21.314Z,7.82
2022-11-18T16:18:25.440Z,8.90
2022-11-18T16:23:30.415Z,11.50
2022-11-18T16:28:34.075Z,10.10
2022-11-18T16:33:37.484Z,9.50
2022-11-18T16:38:43.026Z,9.45
2022-11-18T16:43:50.004Z,11.45
2022-11-18T16:48:53.687Z,10.55
2022-11-18T16:54:00.144Z,8.60
2022-11-18T16:59:05.657Z,9.73
2022-11-18T17:04:11.453Z,8.57
2022-11-18T17:09:18.435Z,8.68
2022-11-18T17:14:22.860Z,9.63
2022-11-18T17:19:26.571Z,8.68
2022-11-18T17:24:31.557Z,7.90
2022-11-18T17:29:35.107Z,8.68
2022-11-18T17:34:38.451Z,10.52
2022-11-18T17:39:43.143Z,10.98
2022-11-18T17:44:46.856Z,9.95
2022-11-18T17:49:51.365Z,14.25
2022-11-18T17:54:56.229Z,19.48
2022-11-18T17:59:59.641Z,19.63
2022-11-18T18:05:03.037Z,17.90
2022-11-18T18:10:08.523Z,16.13
2022-11-18T18:15:12.003Z,16.50
2022-11-18T18:20:16.039Z,15.82
2022-11-18T18:25:20.830Z,13.77
2022-11-18T18:30:24.232Z,15.18
2022-11-18T18:35:27.656Z,14.00
2022-11-18T18:40:33.562Z,15.18
2022-11-18T18:45:54.502Z,15.10
2022-11-18T18:51:04.669Z,15.90
2022-11-18T18:56:10.055Z,16.58
2022-11-18T19:01:14.895Z,18.75
2022-11-18T19:12:04.750Z,15.77
2022-11-18T19:17:12.728Z,17.33
2022-11-18T19:22:17.004Z,17.85
2022-11-18T19:27:22.687Z,18.80
2022-11-18T19:32:26.381Z,17.45
2022-11-18T19:37:31.188Z,18.52
2022-11-18T19:42:36.812Z,18.88
2022-11-18T19:47:43.594Z,19.27
2022-11-18T19:52:49.389Z,16.25
2022-11-18T19:57:54.495Z,12.73
2022-11-18T20:02:59.094Z,12.57
2022-11-18T20:08:02.525Z,13.23
2022-11-18T20:13:11.344Z,13.73
2022-11-18T20:18:15.400Z,13.55
2022-11-18T20:23:19.270Z,15.68
2022-11-18T20:28:24.331Z,15.02
2022-11-18T20:33:28.126Z,17.60
2022-11-18T20:38:31.551Z,16.15
2022-11-18T20:43:37.173Z,14.65
2022-11-18T20:48:41.033Z,14.52
2022-11-18T20:53:45.124Z,15.07
2022-11-18T20:58:50.241Z,13.05
2022-11-18T21:03:55.130Z,14.23
2022-11-18T21:09:03.848Z,14.10
2022-11-18T21:14:24.339Z,12.65
2022-11-18T21:19:47.384Z,12.38
2022-11-18T21:24:53.791Z,13.65
2022-11-18T21:30:01.352Z,13.85
2022-11-18T21:35:07.681Z,14.18
2022-11-18T21:40:12.724Z,14.60
2022-11-18T21:45:18.295Z,14.02
2022-11-18T21:50:21.747Z,14.20
2022-11-18T21:55:25.433Z,14.32
2022-11-18T22:00:30.225Z,12.48
2022-11-18T22:05:33.678Z,13.32
2022-11-18T22:10:37.204Z,12.45
2022-11-18T22:15:42.238Z,11.05
2022-11-18T22:20:45.931Z,9.57
2022-11-18T22:25:56.756Z,9.90
2022-11-18T22:31:05.002Z,8.65
2022-11-18T22:36:10.809Z,8.00
2022-11-18T22:41:30.650Z,8.98
2022-11-18T22:46:35.846Z,9.10
2022-11-18T22:51:40.541Z,8.60
2022-11-18T22:56:44.010Z,10.75
2022-11-18T23:01:50.827Z,10.25
2022-11-18T23:06:54.590Z,10.10
2022-11-18T23:12:15.720Z,9.75
2022-11-18T23:17:20.782Z,9.25
2022-11-18T23:22:24.194Z,10.45
2022-11-18T23:27:28.916Z,9.93
2022-11-18T23:32:33.726Z,10.80
2022-11-18T23:37:37.153Z,12.10
2022-11-18T23:42:40.576Z,10.48
2022-11-18T23:47:45.243Z,12.23
2022-11-18T23:52:48.558Z,11.88
2022-11-18T23:57:52.196Z,10.48
